OMD185 KMIA-KGYR
Flight info
| Callsign | OMD185 |
|---|---|
| Flight time | N/A |
| Altitude | 38000 |
| Route | HURCN4 SMELZ Q116 JAWJA CHEWS SHYRE KEENY MHZ J4 ABI J66 EWM J4 SSO SUNSS8 |
| Aircraft | A21N/M-SDE3FGHIRWY/LB1 |
Departure
| Time | 2026-05-04 21:57 |
|---|---|
| Airport | Miami International Airport (KMIA) |
Arrival
| Time | N/A |
|---|---|
| Airport | Phoenix Goodyear Airport (KGYR) |
| Time | Latitude | Longitude | Altitude | Speed | Heading |
|---|---|---|---|---|---|
| 2026-05-04 21:43 | 25.80588 | -80.27277 | 12 ft | 0 kts | 327° |
| 2026-05-04 21:48 | 25.80588 | -80.27278 | 12 ft | 0 kts | 327° |
| 2026-05-04 21:48 | 25.80577 | -80.27270 | 12 ft | 2 kts | 327° |
| 2026-05-04 21:49 | 25.80564 | -80.27261 | 12 ft | 2 kts | 327° |
| 2026-05-04 21:49 | 25.80551 | -80.27251 | 12 ft | 2 kts | 327° |
| 2026-05-04 21:49 | 25.80539 | -80.27243 | 12 ft | 2 kts | 327° |
| 2026-05-04 21:49 | 25.80526 | -80.27235 | 12 ft | 1 kts | 327° |
| 2026-05-04 21:50 | 25.80518 | -80.27228 | 12 ft | 2 kts | 307° |
| 2026-05-04 21:50 | 25.80512 | -80.27213 | 12 ft | 1 kts | 273° |
| 2026-05-04 21:50 | 25.80513 | -80.27206 | 12 ft | 1 kts | 265° |
| 2026-05-04 21:50 | 25.80513 | -80.27203 | 12 ft | 0 kts | 266° |
| 2026-05-04 21:53 | 25.80511 | -80.27267 | 12 ft | 19 kts | 268° |
| 2026-05-04 21:53 | 25.80504 | -80.27460 | 12 ft | 27 kts | 272° |
| 2026-05-04 21:53 | 25.80504 | -80.27671 | 12 ft | 27 kts | 267° |
| 2026-05-04 21:54 | 25.80494 | -80.27889 | 12 ft | 28 kts | 267° |
| 2026-05-04 21:54 | 25.80485 | -80.28104 | 12 ft | 28 kts | 268° |
| 2026-05-04 21:54 | 25.80477 | -80.28322 | 12 ft | 28 kts | 267° |
| 2026-05-04 21:54 | 25.80467 | -80.28529 | 12 ft | 28 kts | 267° |
| 2026-05-04 21:55 | 25.80458 | -80.28745 | 12 ft | 28 kts | 268° |
| 2026-05-04 21:55 | 25.80450 | -80.28963 | 12 ft | 28 kts | 267° |
| 2026-05-04 21:55 | 25.80441 | -80.29173 | 12 ft | 28 kts | 268° |
| 2026-05-04 21:55 | 25.80433 | -80.29394 | 12 ft | 28 kts | 267° |
| 2026-05-04 21:56 | 25.80423 | -80.29607 | 12 ft | 28 kts | 267° |
| 2026-05-04 21:56 | 25.80414 | -80.29828 | 12 ft | 28 kts | 268° |
| 2026-05-04 21:56 | 25.80404 | -80.30017 | 12 ft | 16 kts | 258° |
| 2026-05-04 21:56 | 25.80326 | -80.30064 | 12 ft | 14 kts | 163° |
| 2026-05-04 21:57 | 25.80298 | -80.29958 | 12 ft | 19 kts | 87° |
| 2026-05-04 21:57 | 25.80313 | -80.29594 | 12 ft | 86 kts | 87° |
| 2026-05-04 21:57 | 25.80350 | -80.28653 | 39 ft | 151 kts | 87° |
| 2026-05-04 21:57 | 25.80392 | -80.27450 | 638 ft | 160 kts | 86° |
| 2026-05-04 21:58 | 25.80422 | -80.26224 | 1496 ft | 162 kts | 87° |
| 2026-05-04 21:58 | 25.80436 | -80.24979 | 2182 ft | 166 kts | 86° |
| 2026-05-04 21:58 | 25.80473 | -80.23635 | 2640 ft | 182 kts | 86° |
| 2026-05-04 21:58 | 25.80511 | -80.22150 | 3076 ft | 201 kts | 86° |
| 2026-05-04 21:59 | 25.80549 | -80.20512 | 3425 ft | 228 kts | 87° |
| 2026-05-04 21:59 | 25.80598 | -80.19076 | 3871 ft | 242 kts | 82° |
| 2026-05-04 21:59 | 25.81210 | -80.17320 | 4450 ft | 257 kts | 51° |
| 2026-05-04 21:59 | 25.82530 | -80.16171 | 5083 ft | 266 kts | 21° |
| 2026-05-04 22:00 | 25.84371 | -80.15825 | 5939 ft | 270 kts | 0° |
| 2026-05-04 22:00 | 25.86193 | -80.15779 | 6764 ft | 276 kts | 359° |
| 2026-05-04 22:00 | 25.88149 | -80.15747 | 7644 ft | 281 kts | 356° |
| 2026-05-04 22:00 | 25.90113 | -80.15990 | 8503 ft | 284 kts | 345° |
| 2026-05-04 22:01 | 25.92015 | -80.16560 | 9366 ft | 286 kts | 339° |
| 2026-05-04 22:01 | 25.93952 | -80.17247 | 10245 ft | 290 kts | 338° |
| 2026-05-04 22:01 | 25.95915 | -80.17956 | 10864 ft | 302 kts | 338° |
| 2026-05-04 22:01 | 25.97894 | -80.18894 | 11290 ft | 313 kts | 322° |
| 2026-05-04 22:02 | 25.99418 | -80.20679 | 11684 ft | 321 kts | 298° |
| 2026-05-04 22:02 | 26.00317 | -80.22994 | 12078 ft | 333 kts | 289° |
| 2026-05-04 22:02 | 26.01167 | -80.25421 | 12663 ft | 341 kts | 289° |
| 2026-05-04 22:02 | 26.02049 | -80.27896 | 13405 ft | 343 kts | 289° |
| 2026-05-04 22:03 | 26.02931 | -80.30357 | 13975 ft | 348 kts | 290° |
| 2026-05-04 22:03 | 26.03843 | -80.32867 | 14607 ft | 351 kts | 290° |
| 2026-05-04 22:03 | 26.04761 | -80.35403 | 15260 ft | 353 kts | 289° |
| 2026-05-04 22:03 | 26.05667 | -80.37920 | 15872 ft | 356 kts | 289° |
| 2026-05-04 22:04 | 26.06584 | -80.40479 | 16497 ft | 356 kts | 289° |
| 2026-05-04 22:04 | 26.07517 | -80.43070 | 17086 ft | 359 kts | 289° |
| 2026-05-04 22:04 | 26.08440 | -80.45637 | 17648 ft | 362 kts | 289° |
| 2026-05-04 22:04 | 26.09381 | -80.48257 | 18195 ft | 363 kts | 289° |
| 2026-05-04 22:05 | 26.10229 | -80.50614 | 18551 ft | 370 kts | 290° |
| 2026-05-04 22:05 | 26.11241 | -80.53397 | 19018 ft | 375 kts | 290° |
| 2026-05-04 22:05 | 26.12245 | -80.55944 | 19502 ft | 379 kts | 296° |
| 2026-05-04 22:05 | 26.13821 | -80.58308 | 19956 ft | 388 kts | 310° |
| 2026-05-04 22:06 | 26.16008 | -80.60201 | 20411 ft | 398 kts | 325° |
| 2026-05-04 22:06 | 26.18549 | -80.61517 | 20883 ft | 403 kts | 332° |
| 2026-05-04 22:06 | 26.21125 | -80.62749 | 21281 ft | 407 kts | 331° |
| 2026-05-04 22:06 | 26.23728 | -80.63995 | 21735 ft | 410 kts | 331° |
| 2026-05-04 22:07 | 26.26287 | -80.65231 | 22182 ft | 412 kts | 330° |
| 2026-05-04 22:07 | 26.28962 | -80.66535 | 22641 ft | 413 kts | 330° |
| 2026-05-04 22:07 | 26.31590 | -80.67813 | 23025 ft | 418 kts | 330° |
| 2026-05-04 22:07 | 26.34290 | -80.69115 | 23496 ft | 418 kts | 330° |
| 2026-05-04 22:08 | 26.36976 | -80.70438 | 23953 ft | 419 kts | 328° |
| 2026-05-04 22:08 | 26.39485 | -80.72053 | 24405 ft | 416 kts | 321° |
| 2026-05-04 22:08 | 26.41757 | -80.73988 | 24803 ft | 413 kts | 314° |
| 2026-05-04 22:08 | 26.43810 | -80.76231 | 25184 ft | 413 kts | 309° |
| 2026-05-04 22:09 | 26.45794 | -80.78598 | 25584 ft | 414 kts | 308° |
| 2026-05-04 22:09 | 26.47739 | -80.80957 | 25855 ft | 418 kts | 308° |
| 2026-05-04 22:09 | 26.49727 | -80.83375 | 26086 ft | 421 kts | 308° |
| 2026-05-04 22:09 | 26.51724 | -80.85797 | 26383 ft | 424 kts | 308° |
| 2026-05-04 22:10 | 26.53741 | -80.88240 | 26704 ft | 425 kts | 308° |
| 2026-05-04 22:10 | 26.55736 | -80.90657 | 27013 ft | 426 kts | 308° |
| 2026-05-04 22:10 | 26.57753 | -80.93089 | 27439 ft | 426 kts | 308° |
| 2026-05-04 22:10 | 26.59759 | -80.95512 | 27932 ft | 422 kts | 308° |
| 2026-05-04 22:11 | 26.61746 | -80.97916 | 28421 ft | 420 kts | 307° |
| 2026-05-04 22:11 | 26.63733 | -81.00326 | 28924 ft | 419 kts | 308° |
| 2026-05-04 22:11 | 26.65727 | -81.02750 | 29492 ft | 417 kts | 308° |
| 2026-05-04 22:11 | 26.67592 | -81.05016 | 30030 ft | 413 kts | 307° |
| 2026-05-04 22:12 | 26.69541 | -81.07385 | 30603 ft | 409 kts | 307° |
| 2026-05-04 22:12 | 26.71467 | -81.09728 | 31065 ft | 408 kts | 307° |
| 2026-05-04 22:12 | 26.73367 | -81.12045 | 31509 ft | 406 kts | 307° |
| 2026-05-04 22:12 | 26.75290 | -81.14391 | 31963 ft | 404 kts | 307° |
| 2026-05-04 22:13 | 26.77172 | -81.16694 | 32432 ft | 403 kts | 307° |
| 2026-05-04 22:13 | 26.79084 | -81.19019 | 32946 ft | 400 kts | 307° |
| 2026-05-04 22:13 | 26.80932 | -81.21270 | 33361 ft | 398 kts | 307° |
| 2026-05-04 22:13 | 26.82821 | -81.23574 | 33785 ft | 397 kts | 307° |
| 2026-05-04 22:14 | 26.84687 | -81.25851 | 34276 ft | 395 kts | 307° |
| 2026-05-04 22:14 | 26.86533 | -81.28101 | 34778 ft | 394 kts | 307° |
| 2026-05-04 22:14 | 26.88380 | -81.30356 | 35231 ft | 392 kts | 307° |
| 2026-05-04 22:14 | 26.90232 | -81.32625 | 35677 ft | 391 kts | 307° |
| 2026-05-04 22:15 | 26.92050 | -81.34849 | 36126 ft | 390 kts | 306° |
| 2026-05-04 22:15 | 26.93866 | -81.37079 | 36500 ft | 389 kts | 307° |
| 2026-05-04 22:15 | 26.95702 | -81.39333 | 36893 ft | 388 kts | 307° |
| 2026-05-04 22:15 | 26.97511 | -81.41554 | 37230 ft | 387 kts | 306° |
| 2026-05-04 22:16 | 26.99332 | -81.43787 | 37507 ft | 387 kts | 306° |
| 2026-05-04 22:16 | 27.01172 | -81.46002 | 37778 ft | 389 kts | 308° |
| 2026-05-04 22:16 | 27.03089 | -81.48112 | 37923 ft | 391 kts | 310° |
| 2026-05-04 22:17 | 27.07290 | -81.52107 | 37937 ft | 397 kts | 315° |
| 2026-05-04 22:17 | 27.11888 | -81.55693 | 37946 ft | 408 kts | 320° |
| 2026-05-04 22:18 | 27.16761 | -81.59209 | 37944 ft | 415 kts | 320° |
| 2026-05-04 22:18 | 27.21626 | -81.62708 | 37940 ft | 418 kts | 320° |
| 2026-05-04 22:19 | 27.26506 | -81.66254 | 37955 ft | 418 kts | 320° |
| 2026-05-04 22:19 | 27.31386 | -81.69823 | 37945 ft | 418 kts | 320° |
| 2026-05-04 22:20 | 27.36290 | -81.73380 | 37935 ft | 418 kts | 320° |
| 2026-05-04 22:20 | 27.41145 | -81.76897 | 37950 ft | 416 kts | 320° |
| 2026-05-04 22:21 | 27.46181 | -81.80241 | 37968 ft | 421 kts | 325° |
| 2026-05-04 22:21 | 27.51504 | -81.83073 | 37946 ft | 422 kts | 328° |
| 2026-05-04 22:22 | 27.56891 | -81.85716 | 37937 ft | 425 kts | 328° |
| 2026-05-04 22:22 | 27.62368 | -81.88391 | 37939 ft | 426 kts | 329° |
| 2026-05-04 22:23 | 27.67824 | -81.91063 | 37953 ft | 427 kts | 329° |
| 2026-05-04 22:23 | 27.73272 | -81.93727 | 37954 ft | 427 kts | 328° |
| 2026-05-04 22:24 | 27.78742 | -81.96407 | 37983 ft | 428 kts | 329° |